Time;durP1;ratioP1;P1;durP2;ratioP2;P2;SDS_P1;SDS_P2;PMS_P1;PMS_P2;Temp;Humidity;BMP_temperature;BMP_pressure;BME280_temperature;BME280_humidity;BME280_pressure;Samples;Min_cycle;Max_cycle;Signal;HPM_P1;HPM_P2
2022/11/15 00:01:34;;;;;;;9.47;8.53;;;9.70;99.90;;;;;;5014464;28;20183;-66
2022/11/15 00:03:59;;;;;;;9.70;8.73;;;9.70;99.90;;;;;;5014525;28;20196;-66
2022/11/15 00:06:25;;;;;;;8.47;7.67;;;9.70;99.90;;;;;;5014849;28;20174;-66
2022/11/15 00:08:50;;;;;;;13.33;9.87;;;9.80;99.90;;;;;;5014326;28;20270;-67
2022/11/15 00:11:16;;;;;;;10.13;8.37;;;9.80;99.90;;;;;;5014434;28;20286;-66
2022/11/15 00:13:42;;;;;;;8.77;7.97;;;9.80;99.90;;;;;;5014138;28;20215;-66
2022/11/15 00:16:09;;;;;;;10.93;8.97;;;9.80;99.90;;;;;;5013160;28;20662;-67
2022/11/15 00:18:34;;;;;;;10.93;7.83;;;9.80;99.90;;;;;;5014124;28;20230;-67
2022/11/15 00:21:09;;;;;;;12.57;8.50;;;9.80;99.90;;;;;;5014009;28;20180;-66
2022/11/15 00:23:35;;;;;;;9.37;8.30;;;9.90;99.90;;;;;;5012598;28;20207;-67
2022/11/15 00:26:01;;;;;;;9.90;8.90;;;9.90;99.90;;;;;;5012825;28;20577;-66
2022/11/15 00:28:27;;;;;;;9.30;8.30;;;9.90;99.90;;;;;;5013368;28;20219;-66
2022/11/15 00:30:53;;;;;;;9.87;8.17;;;10.00;99.90;;;;;;5013791;28;20674;-67
2022/11/15 00:33:18;;;;;;;9.37;7.77;;;10.00;99.90;;;;;;5013830;28;20223;-67
2022/11/15 00:35:45;;;;;;;10.67;8.57;;;10.00;99.90;;;;;;5012734;28;20180;-66
2022/11/15 00:38:10;;;;;;;10.50;7.67;;;10.00;99.90;;;;;;5013733;28;20604;-66
2022/11/15 00:40:36;;;;;;;10.53;7.83;;;10.10;99.90;;;;;;5012367;28;20271;-67
2022/11/15 00:43:01;;;;;;;10.90;8.37;;;10.10;99.90;;;;;;5013584;28;20216;-67
2022/11/15 00:45:27;;;;;;;9.00;8.10;;;10.10;99.90;;;;;;5012626;28;20180;-67
2022/11/15 00:47:53;;;;;;;12.37;8.53;;;10.10;99.90;;;;;;5013562;28;20176;-67
2022/11/15 00:50:19;;;;;;;8.83;8.03;;;10.20;99.90;;;;;;5013663;28;20670;-67
2022/11/15 00:52:44;;;;;;;8.90;8.13;;;10.20;99.90;;;;;;5013458;28;20246;-67
2022/11/15 00:55:15;;;;;;;9.97;8.60;;;10.20;99.90;;;;;;5013628;28;20678;-67
2022/11/15 00:57:41;;;;;;;10.30;8.57;;;10.30;99.90;;;;;;5013629;28;20646;-68
2022/11/15 01:00:07;;;;;;;10.23;8.43;;;10.30;99.90;;;;;;5012245;28;20208;-67
2022/11/15 01:02:34;;;;;;;9.60;8.17;;;10.30;99.90;;;;;;5013162;28;20286;-67
2022/11/15 01:04:59;;;;;;;8.87;8.07;;;10.40;99.90;;;;;;5013626;28;20180;-67
2022/11/15 01:07:25;;;;;;;10.60;7.50;;;10.40;99.90;;;;;;5013277;28;20263;-67
2022/11/15 01:09:50;;;;;;;10.20;8.17;;;10.50;99.90;;;;;;5013004;28;20173;-68
2022/11/15 01:12:16;;;;;;;7.73;7.00;;;10.50;99.90;;;;;;5013087;28;20176;-67
2022/11/15 01:14:42;;;;;;;7.87;7.07;;;10.50;99.90;;;;;;5053174;23;20230;-66
2022/11/15 01:17:07;;;;;;;9.70;7.80;;;10.60;99.90;;;;;;5033146;28;20176;-66
2022/11/15 01:19:33;;;;;;;8.43;7.30;;;10.60;99.90;;;;;;5032721;28;20225;-65
2022/11/15 01:21:58;;;;;;;10.57;7.60;;;10.60;99.90;;;;;;5032585;28;20195;-66
2022/11/15 01:24:24;;;;;;;8.10;7.50;;;10.60;99.90;;;;;;5031900;28;20210;-66
2022/11/15 01:26:50;;;;;;;8.40;7.53;;;10.60;99.90;;;;;;5032778;28;20233;-67
2022/11/15 01:29:15;;;;;;;9.10;8.30;;;10.60;99.90;;;;;;5032649;28;20171;-66
2022/11/15 01:31:41;;;;;;;9.00;8.10;;;10.70;99.90;;;;;;5032738;28;20174;-67
2022/11/15 01:34:06;;;;;;;8.73;8.07;;;10.70;99.90;;;;;;5032617;28;20219;-67
2022/11/15 01:36:32;;;;;;;8.90;8.13;;;10.70;99.90;;;;;;5032321;28;20609;-67
2022/11/15 01:38:58;;;;;;;8.63;7.67;;;10.70;99.90;;;;;;5031762;28;20210;-67
2022/11/15 01:41:30;;;;;;;8.53;7.73;;;10.80;99.90;;;;;;5032350;28;20207;-66
2022/11/15 01:44:17;;;;;;;11.73;7.53;;;10.90;99.90;;;;;;5032725;28;20473;-66
2022/11/15 01:46:47;;;;;;;9.23;7.43;;;10.90;99.90;;;;;;5031930;28;20183;-66
2022/11/15 01:49:19;;;;;;;7.50;6.90;;;10.90;99.90;;;;;;5032030;28;20180;-67
2022/11/15 01:51:45;;;;;;;8.20;7.43;;;10.90;99.90;;;;;;5032097;28;20544;-66
2022/11/15 01:54:15;;;;;;;8.53;7.47;;;11.00;99.90;;;;;;5041430;28;20286;-67
2022/11/15 01:56:47;;;;;;;9.17;8.27;;;11.00;99.90;;;;;;5044502;28;20648;-67
2022/11/15 01:59:13;;;;;;;7.77;6.93;;;11.00;99.90;;;;;;5043320;28;20258;-66
2022/11/15 02:01:40;;;;;;;11.43;8.40;;;11.00;99.90;;;;;;5032422;28;20571;-66
2022/11/15 02:04:09;;;;;;;7.73;7.07;;;11.00;99.90;;;;;;5032225;28;20187;-65
2022/11/15 02:06:36;;;;;;;8.07;6.83;;;11.10;99.90;;;;;;5030798;28;20221;-66
2022/11/15 02:09:02;;;;;;;10.23;7.13;;;11.10;99.90;;;;;;5032090;28;20719;-66
2022/11/15 02:11:28;;;;;;;8.50;7.60;;;11.10;99.90;;;;;;5031919;28;20159;-65
2022/11/15 02:13:55;;;;;;;8.43;7.73;;;11.10;99.90;;;;;;5031679;28;20560;-66
2022/11/15 02:16:50;;;;;;;8.30;7.47;;;11.10;99.90;;;;;;5031547;28;20180;-66
2022/11/15 02:19:33;;;;;;;8.07;7.37;;;11.10;99.90;;;;;;5028053;28;20289;-66
2022/11/15 02:22:13;;;;;;;8.63;7.53;;;11.10;99.90;;;;;;5031569;28;20529;-66
2022/11/15 02:24:45;;;;;;;7.73;7.03;;;11.20;99.90;;;;;;5030949;28;20195;-66
2022/11/15 02:27:37;;;;;;;7.80;7.10;;;11.20;99.90;;;;;;5031655;28;20182;-66
2022/11/15 02:30:34;;;;;;;11.47;7.37;;;11.20;99.90;;;;;;5031391;28;20172;-67
2022/11/15 02:33:18;;;;;;;9.67;7.27;;;11.30;99.90;;;;;;5031501;28;20711;-67
2022/11/15 02:35:49;;;;;;;8.00;7.20;;;11.30;99.90;;;;;;5031370;28;20190;-66
2022/11/15 02:38:34;;;;;;;9.60;7.17;;;11.40;99.90;;;;;;5031537;28;20180;-66
2022/11/15 02:41:06;;;;;;;11.63;8.33;;;11.40;99.90;;;;;;5030966;28;20218;-66
2022/11/15 02:43:58;;;;;;;9.97;7.37;;;11.40;99.90;;;;;;5031543;28;20213;-66
2022/11/15 02:47:12;;;;;;;9.23;8.33;;;11.40;99.90;;;;;;5031401;28;20179;-66
2022/11/15 02:49:14;;;;;;;7.40;6.77;;;11.50;99.90;;;;;;5031283;28;20238;-67
2022/11/15 02:51:41;;;;;;;8.50;7.47;;;11.50;99.90;;;;;;5030734;28;20175;-66
2022/11/15 02:54:10;;;;;;;10.10;8.13;;;11.50;99.90;;;;;;5031336;28;20270;-66
2022/11/15 02:56:36;;;;;;;10.03;7.60;;;11.50;99.90;;;;;;5031032;28;20183;-66
2022/11/15 02:59:20;;;;;;;9.13;7.90;;;11.50;99.90;;;;;;5031400;28;20632;-66
2022/11/15 03:02:04;;;;;;;10.27;7.50;;;11.50;99.90;;;;;;5029593;28;20206;-66
2022/11/15 03:04:50;;;;;;;7.67;7.07;;;11.50;99.90;;;;;;5029978;28;20265;-66
2022/11/15 03:07:49;;;;;;;13.37;7.77;;;11.60;99.90;;;;;;5011691;28;20183;-66
2022/11/15 03:10:21;;;;;;;8.63;7.77;;;11.60;99.90;;;;;;5025389;28;20179;-66
2022/11/15 03:13:26;;;;;;;9.97;7.83;;;11.60;99.90;;;;;;5031064;28;20254;-66
2022/11/15 03:16:26;;;;;;;9.77;7.77;;;11.60;99.90;;;;;;5031066;28;20179;-66
2022/11/15 03:19:26;;;;;;;8.37;7.63;;;11.60;99.90;;;;;;5030912;28;20187;-65
2022/11/15 03:21:53;;;;;;;7.50;6.90;;;11.70;99.90;;;;;;5017823;28;20274;-65
2022/11/15 03:24:20;;;;;;;8.93;7.27;;;11.70;99.90;;;;;;5030695;28;20196;-67
2022/11/15 03:26:49;;;;;;;9.23;7.17;;;11.70;99.90;;;;;;5031114;28;20321;-66
2022/11/15 03:29:21;;;;;;;7.93;7.13;;;11.80;99.90;;;;;;5030230;28;20180;-67
2022/11/15 03:31:53;;;;;;;7.97;7.27;;;11.80;99.90;;;;;;5030976;28;20168;-66
2022/11/15 03:34:45;;;;;;;8.47;7.33;;;11.80;99.90;;;;;;5030625;28;20226;-67
2022/11/15 03:37:14;;;;;;;8.43;7.57;;;11.90;99.90;;;;;;5031096;28;20533;-66
2022/11/15 03:39:40;;;;;;;8.77;6.97;;;11.80;99.90;;;;;;5030409;28;20168;-66
2022/11/15 03:42:30;;;;;;;8.60;7.20;;;11.80;99.90;;;;;;5031043;28;20245;-66
2022/11/15 03:45:01;;;;;;;11.67;7.43;;;11.90;99.90;;;;;;5030269;28;20222;-67
2022/11/15 03:47:34;;;;;;;7.73;7.13;;;11.90;99.90;;;;;;5031068;28;20183;-66
2022/11/15 03:50:12;;;;;;;8.80;7.97;;;11.90;99.90;;;;;;5030283;28;20179;-66
2022/11/15 03:52:40;;;;;;;8.60;6.63;;;11.90;99.90;;;;;;5030463;28;20254;-67
2022/11/15 03:55:10;;;;;;;8.43;7.67;;;12.00;99.90;;;;;;5030915;28;20178;-66
2022/11/15 03:57:36;;;;;;;9.17;6.97;;;12.00;99.90;;;;;;5030473;28;20180;-66
2022/11/15 04:00:03;;;;;;;7.43;6.67;;;12.00;99.90;;;;;;5030361;28;20526;-67
2022/11/15 04:02:29;;;;;;;11.53;7.80;;;12.00;99.90;;;;;;5031819;28;20278;-66
2022/11/15 04:04:54;;;;;;;9.00;6.70;;;11.90;99.90;;;;;;5034063;28;20278;-66
2022/11/15 04:07:20;;;;;;;10.00;7.43;;;11.90;99.90;;;;;;5033821;28;20202;-66
2022/11/15 04:10:05;;;;;;;8.17;7.27;;;11.90;99.90;;;;;;5034082;28;20175;-66
2022/11/15 04:12:32;;;;;;;7.50;6.90;;;11.80;99.90;;;;;;5033865;28;20171;-67
2022/11/15 04:15:09;;;;;;;7.40;6.80;;;11.80;99.90;;;;;;5033938;28;20290;-67
2022/11/15 04:17:47;;;;;;;8.43;7.50;;;11.70;99.90;;;;;;5033852;28;20176;-66
2022/11/15 04:26:09;;;;;;;6.77;6.20;;;11.60;99.90;;;;;;5034094;28;20187;-67
2022/11/15 04:29:33;;;;;;;7.20;6.60;;;11.60;99.90;;;;;;5033663;28;20175;-67
2022/11/15 04:31:21;;;;;;;6.90;6.17;;;11.60;99.90;;;;;;5033137;28;20178;-67
2022/11/15 04:33:46;;;;;;;8.07;7.23;;;11.60;99.90;;;;;;5033738;28;20661;-67
2022/11/15 04:38:56;;;;;;;7.33;6.70;;;11.60;99.90;;;;;;5033882;28;20178;-67
2022/11/15 04:41:21;;;;;;;7.97;7.17;;;11.60;99.90;;;;;;5033138;28;20680;-68
2022/11/15 04:43:47;;;;;;;7.80;7.20;;;11.60;99.90;;;;;;5033505;28;20199;-67
2022/11/15 04:46:13;;;;;;;8.80;8.03;;;11.60;99.90;;;;;;5033282;28;20629;-67
2022/11/15 04:48:38;;;;;;;8.17;6.60;;;11.60;99.90;;;;;;5033700;28;20182;-68
2022/11/15 04:51:04;;;;;;;7.87;6.90;;;11.60;99.90;;;;;;5032919;28;20258;-68
2022/11/15 04:53:29;;;;;;;7.07;6.47;;;11.60;99.90;;;;;;5033449;28;20199;-67
2022/11/15 04:55:55;;;;;;;8.27;6.77;;;11.60;99.90;;;;;;5033101;28;20195;-67
2022/11/15 04:58:21;;;;;;;7.77;7.17;;;11.60;99.90;;;;;;5033578;28;20241;-68
2022/11/15 05:00:46;;;;;;;9.53;7.50;;;11.60;99.90;;;;;;5032759;28;20179;-68
2022/11/15 05:05:58;;;;;;;7.60;6.90;;;11.50;99.90;;;;;;5033187;28;20194;-67
2022/11/15 05:08:24;;;;;;;7.77;6.87;;;11.60;99.90;;;;;;5033248;28;20163;-67
2022/11/15 05:10:50;;;;;;;7.30;6.60;;;11.60;99.90;;;;;;5032549;28;20654;-67
2022/11/15 05:13:15;;;;;;;7.80;6.97;;;11.60;99.90;;;;;;5032507;28;20290;-68
2022/11/15 05:15:41;;;;;;;9.73;7.17;;;11.60;99.90;;;;;;5039624;28;20258;-68
2022/11/15 05:18:06;;;;;;;7.37;6.77;;;11.60;99.90;;;;;;5042851;28;20187;-67
2022/11/15 05:20:32;;;;;;;6.83;6.33;;;11.60;99.90;;;;;;5040695;28;20194;-66
2022/11/15 05:22:58;;;;;;;8.37;7.57;;;11.50;99.90;;;;;;5032813;28;20615;-67
2022/11/15 05:25:24;;;;;;;7.13;6.53;;;11.60;99.90;;;;;;5032490;28;20202;-67
2022/11/15 05:27:49;;;;;;;7.10;6.50;;;11.50;99.90;;;;;;5032844;28;20167;-65
2022/11/15 05:30:16;;;;;;;9.37;6.60;;;11.60;99.90;;;;;;5032165;28;20179;-67
2022/11/15 05:32:43;;;;;;;6.80;6.30;;;11.60;99.90;;;;;;5032228;28;20497;-67
2022/11/15 05:35:18;;;;;;;8.00;7.40;;;11.50;99.90;;;;;;5032487;28;20185;-67
2022/11/15 05:37:44;;;;;;;7.27;6.70;;;11.50;99.90;;;;;;5030728;28;20171;-67
2022/11/15 05:40:09;;;;;;;7.73;7.03;;;11.50;99.90;;;;;;5032076;28;20190;-67
2022/11/15 05:42:35;;;;;;;8.23;7.33;;;11.50;99.90;;;;;;5030955;28;20195;-66
2022/11/15 05:45:05;;;;;;;7.43;6.83;;;11.60;99.90;;;;;;5032293;28;20199;-66
2022/11/15 05:47:31;;;;;;;7.03;6.43;;;11.50;99.90;;;;;;5032705;28;20191;-66
2022/11/15 05:49:57;;;;;;;7.13;6.57;;;11.60;99.90;;;;;;5031858;28;20513;-67
2022/11/15 05:52:28;;;;;;;7.93;7.33;;;11.60;99.90;;;;;;5032347;28;20222;-67
2022/11/15 05:54:55;;;;;;;8.10;6.90;;;11.50;99.90;;;;;;5032455;28;20210;-66
2022/11/15 05:57:21;;;;;;;8.77;7.97;;;11.50;99.90;;;;;;5031995;28;20230;-66
2022/11/15 05:59:47;;;;;;;8.13;7.33;;;11.50;99.90;;;;;;5031825;28;20203;-66
2022/11/15 06:02:12;;;;;;;7.73;6.97;;;11.50;99.90;;;;;;5032090;28;20187;-66
2022/11/15 06:04:38;;;;;;;7.40;6.70;;;11.50;99.90;;;;;;5031968;28;20295;-67
2022/11/15 06:07:04;;;;;;;7.63;7.03;;;11.50;99.90;;;;;;5031951;28;20186;-66
2022/11/15 06:09:29;;;;;;;7.30;6.70;;;11.40;99.90;;;;;;5031813;28;20534;-66
2022/11/15 06:11:55;;;;;;;7.63;6.93;;;11.40;99.90;;;;;;5031569;28;20191;-65
2022/11/15 06:14:20;;;;;;;8.00;7.30;;;11.40;99.90;;;;;;5031865;28;20290;-66
2022/11/15 06:16:46;;;;;;;9.87;6.20;;;11.40;99.90;;;;;;5031558;28;20175;-66
2022/11/15 06:19:11;;;;;;;6.90;6.30;;;11.30;99.90;;;;;;5031846;28;20176;-66
2022/11/15 06:21:37;;;;;;;7.00;6.40;;;11.20;99.90;;;;;;5031306;28;20168;-65
2022/11/15 06:24:03;;;;;;;7.27;6.53;;;11.20;99.90;;;;;;5031877;28;20206;-67
2022/11/15 06:26:28;;;;;;;8.87;7.33;;;11.10;99.90;;;;;;5030833;28;20167;-66
2022/11/15 06:28:54;;;;;;;7.07;6.47;;;11.00;99.90;;;;;;5031888;28;20262;-66
2022/11/15 06:31:20;;;;;;;8.03;7.33;;;10.90;99.90;;;;;;5031344;28;20229;-66
2022/11/15 06:33:46;;;;;;;7.93;7.07;;;10.80;99.90;;;;;;5030975;28;20207;-65
2022/11/15 06:36:16;;;;;;;7.57;6.97;;;10.70;99.90;;;;;;5031579;28;20258;-67
2022/11/15 06:38:43;;;;;;;8.07;7.33;;;10.70;99.90;;;;;;5031202;28;20187;-66
2022/11/15 06:41:10;;;;;;;8.27;7.57;;;10.60;99.90;;;;;;5030886;28;20174;-67
2022/11/15 06:43:37;;;;;;;8.40;6.97;;;10.60;99.90;;;;;;5031465;28;20195;-66
2022/11/15 06:46:04;;;;;;;8.97;8.07;;;10.60;99.90;;;;;;5030290;28;20251;-66
2022/11/15 06:48:31;;;;;;;8.00;7.30;;;10.70;99.90;;;;;;5011358;28;20858;-67
2022/11/15 06:50:59;;;;;;;10.77;8.10;;;10.70;99.90;;;;;;5026622;28;20187;-67
2022/11/15 06:53:26;;;;;;;10.73;8.60;;;10.70;99.90;;;;;;5030045;28;20200;-66
2022/11/15 06:55:52;;;;;;;7.77;7.17;;;10.70;99.90;;;;;;5031081;28;20314;-67
2022/11/15 06:58:17;;;;;;;9.70;8.57;;;10.70;99.90;;;;;;5031485;28;20233;-66
2022/11/15 07:00:43;;;;;;;8.60;7.73;;;10.70;99.90;;;;;;5030146;28;20187;-66
2022/11/15 07:03:09;;;;;;;6.93;6.43;;;10.70;99.90;;;;;;5031128;28;20227;-66
2022/11/15 07:05:35;;;;;;;7.87;7.17;;;10.70;99.90;;;;;;5030870;28;20183;-67
2022/11/15 07:08:01;;;;;;;8.50;7.70;;;10.70;99.90;;;;;;5031492;28;20581;-67
2022/11/15 07:10:27;;;;;;;8.43;7.73;;;10.70;99.90;;;;;;5030676;28;20179;-67
2022/11/15 07:12:54;;;;;;;7.00;6.40;;;10.70;99.90;;;;;;5031237;28;20237;-67
2022/11/15 07:15:23;;;;;;;7.13;6.43;;;10.70;99.90;;;;;;5032026;28;20533;-67
2022/11/15 07:17:49;;;;;;;7.60;6.73;;;10.80;99.90;;;;;;5031709;28;20188;-67
2022/11/15 07:20:15;;;;;;;7.63;6.07;;;10.80;99.90;;;;;;5031079;28;20171;-66
2022/11/15 07:22:41;;;;;;;7.23;6.63;;;10.90;99.90;;;;;;5030593;28;20554;-67
2022/11/15 07:25:07;;;;;;;7.23;6.60;;;10.90;99.90;;;;;;5031712;28;20172;-66
2022/11/15 07:27:33;;;;;;;8.00;6.90;;;10.90;99.90;;;;;;5031450;28;20255;-67
2022/11/15 07:29:58;;;;;;;7.17;6.53;;;11.00;99.90;;;;;;5031091;28;20196;-66
2022/11/15 07:32:24;;;;;;;9.63;6.43;;;11.00;99.90;;;;;;5031656;28;20175;-66
2022/11/15 07:34:50;;;;;;;8.03;6.83;;;11.00;99.90;;;;;;5031841;28;20199;-66
2022/11/15 07:37:16;;;;;;;6.53;5.97;;;11.10;99.90;;;;;;5032070;28;20221;-66
2022/11/15 07:39:42;;;;;;;7.87;7.17;;;11.10;99.90;;;;;;5034794;28;20174;-66
2022/11/15 07:44:52;;;;;;;6.27;5.77;;;11.20;99.90;;;;;;5035126;28;20214;-66
2022/11/15 07:47:18;;;;;;;5.83;5.43;;;11.20;99.90;;;;;;5034835;28;20541;-67
2022/11/15 07:49:43;;;;;;;7.03;6.53;;;11.20;99.90;;;;;;5034531;28;20335;-66
2022/11/15 07:52:09;;;;;;;7.30;5.50;;;11.20;99.90;;;;;;5034157;28;20182;-66
2022/11/15 07:54:34;;;;;;;7.83;6.00;;;11.20;99.90;;;;;;5034188;28;20550;-66
2022/11/15 07:57:00;;;;;;;8.30;6.57;;;11.20;99.90;;;;;;5034654;28;20247;-67
2022/11/15 07:59:25;;;;;;;7.33;6.63;;;11.30;99.90;;;;;;5034059;28;20253;-66
2022/11/15 08:01:51;;;;;;;7.47;6.27;;;11.30;99.90;;;;;;5034177;28;20249;-66
2022/11/15 08:04:17;;;;;;;6.43;5.90;;;11.20;99.90;;;;;;5033803;28;20187;-66
2022/11/15 08:06:42;;;;;;;7.03;6.20;;;11.20;99.90;;;;;;5034157;28;20191;-66
2022/11/15 08:09:08;;;;;;;6.73;6.23;;;11.20;99.90;;;;;;5033494;28;20225;-67
2022/11/15 08:11:33;;;;;;;6.43;5.93;;;11.20;99.90;;;;;;5034093;28;20183;-66
2022/11/15 08:13:59;;;;;;;5.87;5.47;;;11.30;99.90;;;;;;5033698;28;20238;-66
2022/11/15 08:16:24;;;;;;;5.17;4.87;;;11.30;99.90;;;;;;5033231;28;20637;-67
2022/11/15 08:18:50;;;;;;;9.90;6.33;;;11.30;99.90;;;;;;5033744;28;20175;-67
2022/11/15 08:21:20;;;;;;;6.13;5.43;;;11.40;99.90;;;;;;5033564;28;20187;-66
2022/11/15 08:23:45;;;;;;;7.40;5.87;;;11.40;99.90;;;;;;5033750;28;20289;-66
2022/11/15 08:26:11;;;;;;;5.90;5.50;;;11.50;99.90;;;;;;5032299;28;20262;-67
2022/11/15 08:28:37;;;;;;;5.90;5.40;;;11.50;99.90;;;;;;5033830;28;20167;-67
2022/11/15 08:31:04;;;;;;;6.07;5.57;;;11.60;99.90;;;;;;5033237;28;20610;-67
2022/11/15 08:33:30;;;;;;;8.03;5.20;;;11.70;99.90;;;;;;5038801;28;20215;-67
2022/11/15 08:35:57;;;;;;;5.30;4.97;;;11.90;99.90;;;;;;5046250;28;20175;-67
2022/11/15 08:38:23;;;;;;;5.70;5.30;;;12.00;99.90;;;;;;5045834;28;20225;-67
2022/11/15 08:40:51;;;;;;;5.50;5.10;;;12.10;99.90;;;;;;5035591;28;20569;-66
2022/11/15 08:43:17;;;;;;;4.77;4.47;;;12.20;99.90;;;;;;5033665;28;20223;-66
2022/11/15 08:45:43;;;;;;;6.20;5.80;;;12.40;99.90;;;;;;5033072;28;20179;-66
2022/11/15 08:48:08;;;;;;;5.00;4.70;;;12.60;99.90;;;;;;5032939;28;20582;-66
2022/11/15 08:50:34;;;;;;;5.37;4.97;;;12.70;99.90;;;;;;5033035;28;20175;-66
2022/11/15 08:53:08;;;;;;;5.23;4.63;;;12.80;99.90;;;;;;5033272;28;20226;-67
2022/11/15 08:55:39;;;;;;;4.80;4.40;;;13.00;99.90;;;;;;5033373;28;20184;-66
2022/11/15 08:58:04;;;;;;;4.73;4.40;;;13.10;99.90;;;;;;5032957;28;20259;-66
2022/11/15 09:00:30;;;;;;;4.60;4.30;;;13.20;99.90;;;;;;5032997;28;20266;-67
2022/11/15 09:02:55;;;;;;;5.40;5.00;;;13.30;99.90;;;;;;5032765;28;20213;-67
2022/11/15 09:05:21;;;;;;;4.83;4.53;;;13.50;99.90;;;;;;5033436;28;20183;-66
2022/11/15 09:07:47;;;;;;;5.10;4.70;;;13.70;99.90;;;;;;5032767;28;20175;-66
2022/11/15 09:10:12;;;;;;;5.47;4.97;;;13.80;99.90;;;;;;5033065;28;20180;-67
2022/11/15 09:12:38;;;;;;;5.83;5.43;;;14.00;99.90;;;;;;5032724;28;20175;-67
2022/11/15 09:15:05;;;;;;;4.80;4.40;;;14.20;99.90;;;;;;5033170;28;20223;-67
2022/11/15 09:17:31;;;;;;;4.10;3.90;;;14.50;99.90;;;;;;5033010;28;20275;-66
2022/11/15 09:19:56;;;;;;;5.57;4.00;;;14.80;51.70;;;;;;5032360;28;20274;-67
2022/11/15 09:22:22;;;;;;;3.90;3.70;;;15.00;41.10;;;;;;5032621;28;20204;-67
2022/11/15 09:24:47;;;;;;;4.23;4.00;;;15.30;23.90;;;;;;5032534;28;20300;-66
2022/11/15 09:27:13;;;;;;;3.90;3.70;;;15.50;1.90;;;;;;5032618;28;20180;-66
2022/11/15 09:29:39;;;;;;;3.90;3.60;;;15.70;1.00;;;;;;5032508;28;20186;-66
2022/11/15 09:32:04;;;;;;;3.67;3.47;;;15.60;1.00;;;;;;5032948;28;20274;-66
2022/11/15 09:34:30;;;;;;;3.93;3.73;;;15.50;1.00;;;;;;5032288;28;20207;-66
2022/11/15 09:36:56;;;;;;;4.67;4.20;;;15.50;12.30;;;;;;5032802;28;20641;-67
2022/11/15 09:39:21;;;;;;;4.30;3.90;;;15.60;1.00;;;;;;5030577;28;20233;-66
2022/11/15 09:42:12;;;;;;;4.10;3.80;;;15.80;1.00;;;;;;5030860;28;20180;-67
2022/11/15 09:44:40;;;;;;;4.20;3.80;;;16.00;1.00;;;;;;5032190;28;20202;-66
2022/11/15 09:47:30;;;;;;;4.27;3.90;;;16.10;1.00;;;;;;5032193;28;20179;-66
2022/11/15 09:49:59;;;;;;;3.67;3.47;;;16.00;1.00;;;;;;5031590;28;20540;-67
2022/11/15 09:52:24;;;;;;;3.33;3.23;;;15.70;99.90;;;;;;5030917;28;20237;-67
2022/11/15 09:54:52;;;;;;;3.47;3.27;;;15.40;99.90;;;;;;5031498;28;20211;-66
2022/11/15 09:57:32;;;;;;;3.70;3.50;;;15.30;1.00;;;;;;5030674;28;20194;-66
2022/11/15 10:00:10;;;;;;;3.77;3.57;;;15.10;99.90;;;;;;5028713;28;20572;-66
2022/11/15 10:02:57;;;;;;;5.33;3.60;;;15.10;1.00;;;;;;5031507;28;20306;-66
2022/11/15 10:05:25;;;;;;;3.87;3.67;;;15.20;1.00;;;;;;5031025;28;20629;-66
2022/11/15 10:08:02;;;;;;;4.10;3.70;;;15.20;95.10;;;;;;5031000;28;20731;-67
2022/11/15 10:10:51;;;;;;;4.40;4.10;;;15.20;27.60;;;;;;5031518;28;20716;-67
2022/11/15 10:13:30;;;;;;;4.23;3.93;;;15.20;93.70;;;;;;5030802;28;20302;-66
2022/11/15 10:16:18;;;;;;;3.50;3.40;;;15.20;1.00;;;;;;5029225;28;20214;-66
2022/11/15 10:18:58;;;;;;;3.60;3.40;;;15.20;1.00;;;;;;5027745;28;20562;-67
2022/11/15 10:21:48;;;;;;;3.80;3.50;;;15.30;1.00;;;;;;5026958;28;20183;-66
2022/11/15 10:24:19;;;;;;;4.23;3.63;;;15.30;1.00;;;;;;5027593;28;20298;-67
2022/11/15 10:26:48;;;;;;;3.33;3.23;;;15.40;1.00;;;;;;5027337;28;20179;-67
2022/11/15 10:29:21;;;;;;;3.87;3.67;;;15.50;1.00;;;;;;5026383;28;20191;-66
2022/11/15 10:31:48;;;;;;;3.57;3.40;;;15.60;1.00;;;;;;5027542;28;20203;-66
2022/11/15 10:34:19;;;;;;;3.50;3.30;;;15.60;1.00;;;;;;5027968;28;20203;-66
2022/11/15 10:36:58;;;;;;;3.10;3.00;;;15.60;1.00;;;;;;5031320;28;20238;-66
2022/11/15 10:39:25;;;;;;;3.90;3.37;;;15.50;1.00;;;;;;5031322;28;20273;-67
2022/11/15 10:41:51;;;;;;;3.40;3.20;;;15.50;1.00;;;;;;5029313;28;20183;-67
2022/11/15 10:44:18;;;;;;;3.80;3.60;;;15.60;1.00;;;;;;5031323;28;20207;-66
2022/11/15 10:47:06;;;;;;;3.73;3.47;;;15.70;1.00;;;;;;5030258;28;20186;-65
2022/11/15 10:49:34;;;;;;;3.50;3.30;;;15.80;1.00;;;;;;5030817;28;20519;-66
2022/11/15 10:52:12;;;;;;;3.10;2.90;;;15.90;1.00;;;;;;5031256;28;20202;-67
2022/11/15 10:54:49;;;;;;;3.10;3.00;;;15.90;1.00;;;;;;5031105;28;20560;-66
2022/11/15 10:57:21;;;;;;;3.50;3.30;;;15.90;1.00;;;;;;5031136;28;20301;-67
2022/11/15 10:59:53;;;;;;;3.00;2.90;;;15.80;1.00;;;;;;5029489;28;20190;-66
2022/11/15 11:02:30;;;;;;;3.03;2.93;;;15.90;1.00;;;;;;5031204;28;20557;-67
2022/11/15 11:04:56;;;;;;;3.33;3.13;;;16.00;1.00;;;;;;5030163;28;20199;-66
2022/11/15 11:07:30;;;;;;;3.17;3.07;;;16.10;1.00;;;;;;5031169;28;20537;-66
2022/11/15 11:10:16;;;;;;;2.90;2.80;;;16.10;1.00;;;;;;5030499;28;20194;-66
2022/11/15 11:12:42;;;;;;;5.63;2.90;;;16.20;1.00;;;;;;5016668;28;20198;-66
2022/11/15 11:15:14;;;;;;;3.10;3.00;;;16.20;1.00;;;;;;5034798;28;20187;-66
2022/11/15 11:17:48;;;;;;;3.20;2.90;;;16.20;1.00;;;;;;5034483;28;20179;-66
2022/11/15 11:20:41;;;;;;;3.10;3.00;;;16.00;1.00;;;;;;5034246;28;20183;-66
2022/11/15 11:23:36;;;;;;;3.70;3.33;;;16.00;1.00;;;;;;5034475;28;20684;-66
2022/11/15 11:26:08;;;;;;;3.20;3.10;;;15.90;1.00;;;;;;5034574;28;20237;-66
2022/11/15 11:28:55;;;;;;;3.17;3.07;;;15.60;1.00;;;;;;5033578;28;20175;-67
2022/11/15 11:31:51;;;;;;;6.20;3.10;;;15.40;1.00;;;;;;5034066;28;20183;-66
2022/11/15 11:34:30;;;;;;;3.40;3.20;;;15.60;1.00;;;;;;5034943;28;20278;-66
2022/11/15 11:37:14;;;;;;;3.37;3.20;;;15.80;1.00;;;;;;5034884;28;20270;-67
2022/11/15 11:39:58;;;;;;;3.27;3.07;;;16.10;1.00;;;;;;5034062;28;20649;-67
2022/11/15 11:42:40;;;;;;;2.93;2.80;;;16.20;1.00;;;;;;5034218;28;20247;-67
2022/11/15 11:45:34;;;;;;;3.67;2.90;;;16.40;1.00;;;;;;5031692;28;20188;-67
2022/11/15 11:48:14;;;;;;;2.60;2.50;;;16.50;1.00;;;;;;5034418;28;20641;-65
2022/11/15 11:50:42;;;;;;;3.67;3.40;;;16.60;1.00;;;;;;5033291;28;20655;-67
2022/11/15 11:53:40;;;;;;;2.93;2.83;;;16.70;1.00;;;;;;5034223;28;20265;-66
2022/11/15 11:56:18;;;;;;;2.90;2.80;;;16.70;1.00;;;;;;5034087;28;20189;-66
2022/11/15 11:58:45;;;;;;;3.00;2.80;;;16.40;1.00;;;;;;5033967;28;20179;-66
2022/11/15 12:01:23;;;;;;;5.00;3.17;;;16.20;1.00;;;;;;5032399;28;20274;-66
2022/11/15 12:04:19;;;;;;;3.50;3.30;;;16.10;1.00;;;;;;5038077;28;20247;-68
2022/11/15 12:06:55;;;;;;;3.47;3.37;;;16.00;1.00;;;;;;5032129;28;20565;-67
2022/11/15 12:09:29;;;;;;;3.00;2.80;;;16.00;1.00;;;;;;5040979;28;20214;-67
2022/11/15 12:11:58;;;;;;;3.00;2.80;;;16.10;1.00;;;;;;5035292;28;20175;-66
2022/11/15 12:14:53;;;;;;;3.00;2.90;;;16.10;1.00;;;;;;5033403;28;20272;-66
2022/11/15 12:17:23;;;;;;;4.50;3.57;;;16.10;1.00;;;;;;5032733;28;20611;-67
2022/11/15 12:19:49;;;;;;;3.30;3.10;;;16.20;1.00;;;;;;5032777;28;20184;-66
2022/11/15 12:22:22;;;;;;;3.30;3.03;;;16.30;1.00;;;;;;5033663;28;20167;-66
2022/11/15 12:25:06;;;;;;;3.20;3.03;;;16.50;1.00;;;;;;5032847;28;20213;-66
2022/11/15 12:28:07;;;;;;;4.13;3.00;;;16.50;1.00;;;;;;5033389;28;20194;-66
2022/11/15 12:31:01;;;;;;;3.80;3.50;;;16.30;1.00;;;;;;4981557;28;20195;-66
2022/11/15 12:33:29;;;;;;;3.53;3.30;;;16.00;1.00;;;;;;5033055;28;20688;-66
2022/11/15 12:36:04;;;;;;;3.60;3.50;;;15.80;1.00;;;;;;5033371;28;20195;-67
2022/11/15 12:38:52;;;;;;;3.50;3.30;;;15.70;1.00;;;;;;5033283;28;20198;-67
2022/11/15 12:41:19;;;;;;;3.30;3.10;;;15.50;1.00;;;;;;5032286;28;20179;-67
2022/11/15 12:43:47;;;;;;;3.80;3.50;;;15.70;1.00;;;;;;5033630;28;20214;-67
2022/11/15 12:46:21;;;;;;;3.50;3.30;;;15.80;1.00;;;;;;5033417;28;20179;-67
2022/11/15 12:48:53;;;;;;;3.10;3.00;;;15.90;1.00;;;;;;5033208;28;20280;-67
2022/11/15 12:51:41;;;;;;;3.67;3.47;;;16.10;1.00;;;;;;5033016;28;20549;-67
2022/11/15 12:54:36;;;;;;;3.70;3.50;;;16.20;1.00;;;;;;5032500;28;20209;-67
2022/11/15 12:57:08;;;;;;;4.70;3.20;;;16.30;1.00;;;;;;5008419;28;20196;-67
2022/11/15 13:00:02;;;;;;;3.43;3.23;;;16.30;1.00;;;;;;5012004;28;20180;-67
2022/11/15 13:02:30;;;;;;;4.10;3.80;;;16.10;1.00;;;;;;5013339;28;20207;-67
2022/11/15 13:05:18;;;;;;;3.90;3.67;;;15.80;1.00;;;;;;5013793;28;20287;-68
2022/11/15 13:07:46;;;;;;;4.00;3.80;;;15.60;1.00;;;;;;5013425;28;20255;-67
2022/11/15 13:10:12;;;;;;;3.40;3.20;;;15.50;1.00;;;;;;5013386;28;20552;-67
2022/11/15 13:12:44;;;;;;;3.60;3.40;;;15.60;1.00;;;;;;5012729;28;20176;-66
2022/11/15 13:15:12;;;;;;;3.43;3.13;;;15.60;1.00;;;;;;5014047;28;20584;-67
2022/11/15 13:17:51;;;;;;;3.40;3.30;;;15.60;1.00;;;;;;5013403;28;20176;-68
2022/11/15 13:20:16;;;;;;;4.53;3.40;;;15.60;1.00;;;;;;5013372;28;20218;-66
2022/11/15 13:22:51;;;;;;;3.10;2.90;;;15.60;1.00;;;;;;5013451;28;20231;-66